sensor_id;sensor_type;location;lat;lon;timestamp;pressure;altitude;pressure_sealevel;temperature;humidity
78845;BME280;68195;50.854;2.860;2024-02-26T00:00:38;99213.75;;;5.33;100.00
78845;BME280;68195;50.854;2.860;2024-02-26T00:03:04;99255.00;;;5.52;100.00
78845;BME280;68195;50.854;2.860;2024-02-26T00:05:31;99187.81;;;5.18;100.00
78845;BME280;68195;50.854;2.860;2024-02-26T00:07:57;99188.66;;;5.18;100.00
78845;BME280;68195;50.854;2.860;2024-02-26T00:10:22;99251.66;;;5.50;100.00
78845;BME280;68195;50.854;2.860;2024-02-26T00:12:50;99121.03;;;4.75;100.00
78845;BME280;68195;50.854;2.860;2024-02-26T00:15:19;99174.63;;;5.06;100.00
78845;BME280;68195;50.854;2.860;2024-02-26T00:17:44;99166.78;;;5.08;100.00
78845;BME280;68195;50.854;2.860;2024-02-26T00:20:10;99176.06;;;5.12;100.00
78845;BME280;68195;50.854;2.860;2024-02-26T00:22:36;99266.31;;;5.67;100.00
78845;BME280;68195;50.854;2.860;2024-02-26T00:25:01;99278.25;;;5.70;100.00
78845;BME280;68195;50.854;2.860;2024-02-26T00:27:29;99270.91;;;5.62;100.00
78845;BME280;68195;50.854;2.860;2024-02-26T00:29:55;99221.34;;;5.37;100.00
78845;BME280;68195;50.854;2.860;2024-02-26T00:32:20;99201.19;;;5.26;100.00
78845;BME280;68195;50.854;2.860;2024-02-26T00:34:45;99220.81;;;5.30;100.00
78845;BME280;68195;50.854;2.860;2024-02-26T00:37:11;99192.25;;;5.16;100.00
78845;BME280;68195;50.854;2.860;2024-02-26T00:39:36;99230.94;;;5.34;100.00
78845;BME280;68195;50.854;2.860;2024-02-26T00:42:02;99066.69;;;4.43;100.00
78845;BME280;68195;50.854;2.860;2024-02-26T00:44:28;99262.22;;;5.63;100.00
78845;BME280;68195;50.854;2.860;2024-02-26T00:46:53;99174.09;;;5.00;100.00
78845;BME280;68195;50.854;2.860;2024-02-26T00:49:19;99169.06;;;4.97;100.00
78845;BME280;68195;50.854;2.860;2024-02-26T00:51:44;99142.22;;;4.66;100.00
78845;BME280;68195;50.854;2.860;2024-02-26T00:54:09;99285.25;;;5.52;100.00
78845;BME280;68195;50.854;2.860;2024-02-26T00:56:35;99274.31;;;5.47;100.00
78845;BME280;68195;50.854;2.860;2024-02-26T00:59:02;99207.75;;;5.00;100.00
78845;BME280;68195;50.854;2.860;2024-02-26T01:01:28;99164.34;;;4.71;100.00
78845;BME280;68195;50.854;2.860;2024-02-26T01:03:53;99181.72;;;4.85;100.00
78845;BME280;68195;50.854;2.860;2024-02-26T01:06:21;99193.59;;;4.89;100.00
78845;BME280;68195;50.854;2.860;2024-02-26T01:08:49;99225.66;;;5.03;100.00
78845;BME280;68195;50.854;2.860;2024-02-26T01:11:14;99282.78;;;5.33;100.00
78845;BME280;68195;50.854;2.860;2024-02-26T01:13:42;99200.53;;;4.89;100.00
78845;BME280;68195;50.854;2.860;2024-02-26T01:16:07;99164.66;;;4.65;100.00
78845;BME280;68195;50.854;2.860;2024-02-26T01:18:35;99073.44;;;4.13;100.00
78845;BME280;68195;50.854;2.860;2024-02-26T01:21:01;99201.53;;;4.86;100.00
78845;BME280;68195;50.854;2.860;2024-02-26T01:23:28;99232.84;;;4.98;100.00
78845;BME280;68195;50.854;2.860;2024-02-26T01:25:56;99200.06;;;4.81;100.00
78845;BME280;68195;50.854;2.860;2024-02-26T01:28:24;99242.25;;;4.99;100.00
78845;BME280;68195;50.854;2.860;2024-02-26T01:30:49;99279.91;;;5.22;100.00
78845;BME280;68195;50.854;2.860;2024-02-26T01:33:15;99260.06;;;5.05;100.00
78845;BME280;68195;50.854;2.860;2024-02-26T01:35:40;99261.81;;;5.04;100.00
78845;BME280;68195;50.854;2.860;2024-02-26T01:38:06;99281.28;;;5.11;100.00
78845;BME280;68195;50.854;2.860;2024-02-26T01:40:31;99295.44;;;5.22;100.00
78845;BME280;68195;50.854;2.860;2024-02-26T01:42:56;99186.03;;;4.51;100.00
78845;BME280;68195;50.854;2.860;2024-02-26T01:45:26;99130.38;;;4.44;100.00
78845;BME280;68195;50.854;2.860;2024-02-26T01:47:52;99168.38;;;4.42;100.00
78845;BME280;68195;50.854;2.860;2024-02-26T01:50:21;99314.88;;;5.13;100.00
78845;BME280;68195;50.854;2.860;2024-02-26T01:52:49;99172.19;;;4.35;100.00
78845;BME280;68195;50.854;2.860;2024-02-26T01:55:15;99261.03;;;4.69;100.00
78845;BME280;68195;50.854;2.860;2024-02-26T01:57:46;99234.00;;;4.57;100.00
78845;BME280;68195;50.854;2.860;2024-02-26T02:00:16;99204.75;;;4.39;100.00
78845;BME280;68195;50.854;2.860;2024-02-26T02:02:42;99195.91;;;4.26;100.00
78845;BME280;68195;50.854;2.860;2024-02-26T02:05:11;99214.25;;;4.39;100.00
78845;BME280;68195;50.854;2.860;2024-02-26T02:07:37;99217.72;;;4.38;100.00
78845;BME280;68195;50.854;2.860;2024-02-26T02:10:03;99135.91;;;3.84;100.00
78845;BME280;68195;50.854;2.860;2024-02-26T02:12:29;99175.53;;;4.02;100.00
78845;BME280;68195;50.854;2.860;2024-02-26T02:15:02;99277.44;;;4.68;100.00
78845;BME280;68195;50.854;2.860;2024-02-26T02:17:28;99299.34;;;4.78;100.00
78845;BME280;68195;50.854;2.860;2024-02-26T02:19:56;99178.59;;;4.10;100.00
78845;BME280;68195;50.854;2.860;2024-02-26T02:22:21;99305.28;;;4.80;100.00
78845;BME280;68195;50.854;2.860;2024-02-26T02:24:49;99246.78;;;4.43;100.00
78845;BME280;68195;50.854;2.860;2024-02-26T02:27:15;99294.53;;;4.70;100.00
78845;BME280;68195;50.854;2.860;2024-02-26T02:29:43;99310.38;;;4.82;100.00
78845;BME280;68195;50.854;2.860;2024-02-26T02:32:09;99244.50;;;4.37;100.00
78845;BME280;68195;50.854;2.860;2024-02-26T02:34:35;99251.50;;;4.52;100.00
78845;BME280;68195;50.854;2.860;2024-02-26T02:37:00;99330.75;;;4.88;100.00
78845;BME280;68195;50.854;2.860;2024-02-26T02:39:28;99294.41;;;4.73;100.00
78845;BME280;68195;50.854;2.860;2024-02-26T02:41:53;99175.13;;;3.93;100.00
78845;BME280;68195;50.854;2.860;2024-02-26T02:44:18;99142.22;;;3.79;100.00
78845;BME280;68195;50.854;2.860;2024-02-26T02:46:49;99307.47;;;4.70;100.00
78845;BME280;68195;50.854;2.860;2024-02-26T02:49:15;99226.16;;;4.24;100.00
78845;BME280;68195;50.854;2.860;2024-02-26T02:51:46;99276.31;;;4.56;100.00
78845;BME280;68195;50.854;2.860;2024-02-26T02:54:11;99242.97;;;4.32;100.00
78845;BME280;68195;50.854;2.860;2024-02-26T02:56:36;99347.13;;;4.88;100.00
78845;BME280;68195;50.854;2.860;2024-02-26T02:59:02;99254.75;;;4.38;100.00
78845;BME280;68195;50.854;2.860;2024-02-26T03:01:27;99221.13;;;4.21;100.00
78845;BME280;68195;50.854;2.860;2024-02-26T03:03:53;99294.16;;;4.61;100.00
78845;BME280;68195;50.854;2.860;2024-02-26T03:06:18;99238.84;;;4.28;100.00
78845;BME280;68195;50.854;2.860;2024-02-26T03:08:46;99259.84;;;4.40;100.00
78845;BME280;68195;50.854;2.860;2024-02-26T03:11:17;99331.84;;;4.84;100.00
78845;BME280;68195;50.854;2.860;2024-02-26T03:13:45;99338.44;;;4.89;100.00
78845;BME280;68195;50.854;2.860;2024-02-26T03:16:13;99266.53;;;4.44;100.00
78845;BME280;68195;50.854;2.860;2024-02-26T03:18:39;99367.31;;;4.99;100.00
78845;BME280;68195;50.854;2.860;2024-02-26T03:21:07;99200.38;;;4.05;100.00
78845;BME280;68195;50.854;2.860;2024-02-26T03:23:32;99325.34;;;4.75;100.00
78845;BME280;68195;50.854;2.860;2024-02-26T03:26:07;99316.16;;;4.69;100.00
78845;BME280;68195;50.854;2.860;2024-02-26T03:28:33;99367.75;;;5.07;100.00
78845;BME280;68195;50.854;2.860;2024-02-26T03:31:01;99283.53;;;4.49;100.00
78845;BME280;68195;50.854;2.860;2024-02-26T03:33:29;99343.50;;;4.92;100.00
78845;BME280;68195;50.854;2.860;2024-02-26T03:35:55;99313.63;;;4.68;100.00
78845;BME280;68195;50.854;2.860;2024-02-26T03:38:20;99266.78;;;4.39;100.00
78845;BME280;68195;50.854;2.860;2024-02-26T03:40:48;99299.13;;;4.65;100.00
78845;BME280;68195;50.854;2.860;2024-02-26T03:43:13;99364.56;;;5.02;100.00
78845;BME280;68195;50.854;2.860;2024-02-26T03:45:41;99385.72;;;5.10;100.00
78845;BME280;68195;50.854;2.860;2024-02-26T03:48:07;99258.53;;;4.31;100.00
78845;BME280;68195;50.854;2.860;2024-02-26T03:50:32;99229.50;;;4.08;100.00
78845;BME280;68195;50.854;2.860;2024-02-26T03:53:01;99315.63;;;4.63;100.00
78845;BME280;68195;50.854;2.860;2024-02-26T03:55:26;99338.38;;;4.73;100.00
78845;BME280;68195;50.854;2.860;2024-02-26T03:57:54;99400.19;;;5.14;100.00
78845;BME280;68195;50.854;2.860;2024-02-26T04:00:20;99398.97;;;5.04;100.00
78845;BME280;68195;50.854;2.860;2024-02-26T04:02:48;99315.75;;;4.60;100.00
78845;BME280;68195;50.854;2.860;2024-02-26T04:05:14;99344.38;;;4.74;100.00
78845;BME280;68195;50.854;2.860;2024-02-26T04:07:40;99357.63;;;4.85;100.00
78845;BME280;68195;50.854;2.860;2024-02-26T04:10:10;99332.50;;;4.70;100.00
78845;BME280;68195;50.854;2.860;2024-02-26T04:12:38;99301.97;;;4.42;100.00
78845;BME280;68195;50.854;2.860;2024-02-26T04:15:05;99384.56;;;4.99;100.00
78845;BME280;68195;50.854;2.860;2024-02-26T04:17:31;99328.53;;;4.63;100.00
78845;BME280;68195;50.854;2.860;2024-02-26T04:19:58;99365.06;;;4.74;100.00
78845;BME280;68195;50.854;2.860;2024-02-26T04:22:26;99333.72;;;4.63;100.00
78845;BME280;68195;50.854;2.860;2024-02-26T04:24:54;99410.44;;;4.99;100.00
78845;BME280;68195;50.854;2.860;2024-02-26T04:27:19;99392.53;;;4.94;100.00
78845;BME280;68195;50.854;2.860;2024-02-26T04:29:45;99380.13;;;4.83;100.00
78845;BME280;68195;50.854;2.860;2024-02-26T04:32:10;99423.16;;;5.03;100.00
78845;BME280;68195;50.854;2.860;2024-02-26T04:34:36;99262.81;;;3.96;100.00
78845;BME280;68195;50.854;2.860;2024-02-26T04:37:03;99316.38;;;4.28;100.00
78845;BME280;68195;50.854;2.860;2024-02-26T04:39:31;99252.47;;;3.96;100.00
78845;BME280;68195;50.854;2.860;2024-02-26T04:41:56;99387.28;;;4.78;100.00
78845;BME280;68195;50.854;2.860;2024-02-26T04:44:22;99304.72;;;4.20;100.00
78845;BME280;68195;50.854;2.860;2024-02-26T04:46:47;99391.69;;;4.76;100.00
78845;BME280;68195;50.854;2.860;2024-02-26T04:49:13;99383.50;;;4.66;100.00
78845;BME280;68195;50.854;2.860;2024-02-26T04:51:38;99338.84;;;4.45;100.00
78845;BME280;68195;50.854;2.860;2024-02-26T04:54:03;99379.34;;;4.64;100.00
78845;BME280;68195;50.854;2.860;2024-02-26T04:56:29;99354.84;;;4.54;100.00
78845;BME280;68195;50.854;2.860;2024-02-26T04:58:56;99290.72;;;4.06;100.00
78845;BME280;68195;50.854;2.860;2024-02-26T05:01:24;99419.97;;;4.79;100.00
78845;BME280;68195;50.854;2.860;2024-02-26T05:03:49;99425.69;;;4.86;100.00
78845;BME280;68195;50.854;2.860;2024-02-26T05:06:15;99388.38;;;4.55;100.00
78845;BME280;68195;50.854;2.860;2024-02-26T05:08:40;99377.63;;;4.45;100.00
78845;BME280;68195;50.854;2.860;2024-02-26T05:11:06;99409.25;;;4.69;100.00
78845;BME280;68195;50.854;2.860;2024-02-26T05:13:32;99291.28;;;3.94;100.00
78845;BME280;68195;50.854;2.860;2024-02-26T05:16:02;99321.78;;;4.05;100.00
78845;BME280;68195;50.854;2.860;2024-02-26T05:18:28;99409.81;;;4.57;100.00
78845;BME280;68195;50.854;2.860;2024-02-26T05:20:53;99439.44;;;4.69;100.00
78845;BME280;68195;50.854;2.860;2024-02-26T05:23:21;99482.69;;;4.84;100.00
78845;BME280;68195;50.854;2.860;2024-02-26T05:25:46;99484.84;;;4.93;100.00
78845;BME280;68195;50.854;2.860;2024-02-26T05:28:13;99516.22;;;5.05;100.00
78845;BME280;68195;50.854;2.860;2024-02-26T05:30:43;99514.06;;;4.96;100.00
78845;BME280;68195;50.854;2.860;2024-02-26T05:33:08;99477.44;;;4.86;100.00
78845;BME280;68195;50.854;2.860;2024-02-26T05:35:33;99445.25;;;4.55;100.00
78845;BME280;68195;50.854;2.860;2024-02-26T05:37:59;99498.06;;;4.87;100.00
78845;BME280;68195;50.854;2.860;2024-02-26T05:40:24;99465.66;;;4.61;100.00
78845;BME280;68195;50.854;2.860;2024-02-26T05:42:49;99540.28;;;5.07;100.00
78845;BME280;68195;50.854;2.860;2024-02-26T05:45:15;99498.72;;;4.73;100.00
78845;BME280;68195;50.854;2.860;2024-02-26T05:47:40;99514.84;;;4.79;100.00
78845;BME280;68195;50.854;2.860;2024-02-26T05:50:11;99580.22;;;5.20;100.00
78845;BME280;68195;50.854;2.860;2024-02-26T05:52:37;99442.94;;;4.30;100.00
78845;BME280;68195;50.854;2.860;2024-02-26T05:55:06;99519.13;;;4.80;100.00
78845;BME280;68195;50.854;2.860;2024-02-26T05:57:32;99595.72;;;5.20;100.00
78845;BME280;68195;50.854;2.860;2024-02-26T05:59:57;99545.81;;;4.80;100.00
78845;BME280;68195;50.854;2.860;2024-02-26T06:02:28;99579.03;;;5.08;100.00
78845;BME280;68195;50.854;2.860;2024-02-26T06:04:55;99578.53;;;5.00;100.00
78845;BME280;68195;50.854;2.860;2024-02-26T06:07:21;99605.03;;;5.24;100.00
78845;BME280;68195;50.854;2.860;2024-02-26T06:09:46;99565.47;;;4.84;100.00
78845;BME280;68195;50.854;2.860;2024-02-26T06:12:11;99583.72;;;5.00;100.00
78845;BME280;68195;50.854;2.860;2024-02-26T06:14:37;99568.75;;;4.88;100.00
78845;BME280;68195;50.854;2.860;2024-02-26T06:17:02;99567.03;;;4.88;100.00
78845;BME280;68195;50.854;2.860;2024-02-26T06:19:28;99609.88;;;5.13;100.00
78845;BME280;68195;50.854;2.860;2024-02-26T06:21:53;99596.88;;;4.96;100.00
78845;BME280;68195;50.854;2.860;2024-02-26T06:24:19;99582.59;;;4.87;100.00
78845;BME280;68195;50.854;2.860;2024-02-26T06:26:50;99623.75;;;5.12;100.00
78845;BME280;68195;50.854;2.860;2024-02-26T06:29:18;99601.13;;;4.97;100.00
78845;BME280;68195;50.854;2.860;2024-02-26T06:31:44;99563.28;;;4.75;100.00
78845;BME280;68195;50.854;2.860;2024-02-26T06:34:09;99596.44;;;4.86;100.00
78845;BME280;68195;50.854;2.860;2024-02-26T06:36:40;99532.22;;;4.37;100.00
78845;BME280;68195;50.854;2.860;2024-02-26T06:39:07;99567.53;;;4.57;100.00
78845;BME280;68195;50.854;2.860;2024-02-26T06:41:33;99586.19;;;4.64;100.00
78845;BME280;68195;50.854;2.860;2024-02-26T06:43:58;99602.44;;;4.67;100.00
78845;BME280;68195;50.854;2.860;2024-02-26T06:46:24;99668.06;;;5.04;100.00
78845;BME280;68195;50.854;2.860;2024-02-26T06:48:51;99563.75;;;4.25;100.00
78845;BME280;68195;50.854;2.860;2024-02-26T06:51:16;99614.28;;;4.52;100.00
78845;BME280;68195;50.854;2.860;2024-02-26T06:53:42;99673.28;;;4.84;100.00
78845;BME280;68195;50.854;2.860;2024-02-26T06:56:07;99651.38;;;4.72;100.00
78845;BME280;68195;50.854;2.860;2024-02-26T06:58:32;99602.53;;;4.45;100.00
78845;BME280;68195;50.854;2.860;2024-02-26T07:00:58;99682.50;;;4.89;100.00
78845;BME280;68195;50.854;2.860;2024-02-26T07:03:24;99647.22;;;4.68;100.00
78845;BME280;68195;50.854;2.860;2024-02-26T07:05:50;99705.31;;;5.00;100.00
78845;BME280;68195;50.854;2.860;2024-02-26T07:08:17;99613.19;;;4.38;100.00
78845;BME280;68195;50.854;2.860;2024-02-26T07:10:42;99654.22;;;4.45;100.00
78845;BME280;68195;50.854;2.860;2024-02-26T07:13:08;99717.44;;;5.00;100.00
78845;BME280;68195;50.854;2.860;2024-02-26T07:15:34;99731.25;;;4.99;100.00
78845;BME280;68195;50.854;2.860;2024-02-26T07:18:01;99738.06;;;5.01;100.00
78845;BME280;68195;50.854;2.860;2024-02-26T07:20:30;99752.09;;;4.96;100.00
78845;BME280;68195;50.854;2.860;2024-02-26T07:22:56;99733.41;;;4.89;100.00
78845;BME280;68195;50.854;2.860;2024-02-26T07:25:21;99733.47;;;4.87;100.00
78845;BME280;68195;50.854;2.860;2024-02-26T07:27:47;99763.03;;;5.02;100.00
78845;BME280;68195;50.854;2.860;2024-02-26T07:30:12;99726.31;;;4.73;100.00
78845;BME280;68195;50.854;2.860;2024-02-26T07:32:38;99663.47;;;4.30;100.00
78845;BME280;68195;50.854;2.860;2024-02-26T07:35:04;99676.00;;;4.40;100.00
78845;BME280;68195;50.854;2.860;2024-02-26T07:37:30;99674.69;;;4.29;100.00
78845;BME280;68195;50.854;2.860;2024-02-26T07:39:57;99738.47;;;4.71;100.00
78845;BME280;68195;50.854;2.860;2024-02-26T07:42:23;99707.50;;;4.49;100.00
78845;BME280;68195;50.854;2.860;2024-02-26T07:44:48;99674.63;;;4.31;100.00
78845;BME280;68195;50.854;2.860;2024-02-26T07:47:14;99740.38;;;4.66;100.00
78845;BME280;68195;50.854;2.860;2024-02-26T07:49:40;99769.00;;;4.84;100.00
78845;BME280;68195;50.854;2.860;2024-02-26T07:52:05;99702.63;;;4.42;100.00
78845;BME280;68195;50.854;2.860;2024-02-26T07:54:31;99765.16;;;4.72;100.00
78845;BME280;68195;50.854;2.860;2024-02-26T07:56:58;99615.53;;;3.81;100.00
78845;BME280;68195;50.854;2.860;2024-02-26T07:59:24;99708.81;;;4.38;100.00
78845;BME280;68195;50.854;2.860;2024-02-26T08:01:50;99837.03;;;5.06;100.00
78845;BME280;68195;50.854;2.860;2024-02-26T08:04:18;99753.66;;;4.59;100.00
78845;BME280;68195;50.854;2.860;2024-02-26T08:06:46;99778.22;;;4.69;100.00
78845;BME280;68195;50.854;2.860;2024-02-26T08:09:12;99759.44;;;4.43;100.00
78845;BME280;68195;50.854;2.860;2024-02-26T08:11:40;99756.19;;;4.38;100.00
78845;BME280;68195;50.854;2.860;2024-02-26T08:14:06;99846.53;;;4.85;100.00
78845;BME280;68195;50.854;2.860;2024-02-26T08:16:33;99761.34;;;4.38;100.00
78845;BME280;68195;50.854;2.860;2024-02-26T08:18:59;99823.03;;;4.69;100.00
78845;BME280;68195;50.854;2.860;2024-02-26T08:21:24;99829.09;;;4.68;100.00
78845;BME280;68195;50.854;2.860;2024-02-26T08:23:49;99852.59;;;4.84;100.00
78845;BME280;68195;50.854;2.860;2024-02-26T08:26:15;99869.22;;;4.79;100.00
78845;BME280;68195;50.854;2.860;2024-02-26T08:28:40;99883.13;;;4.97;100.00
78845;BME280;68195;50.854;2.860;2024-02-26T08:31:08;99845.56;;;4.66;100.00
78845;BME280;68195;50.854;2.860;2024-02-26T08:33:34;99768.25;;;4.17;100.00
78845;BME280;68195;50.854;2.860;2024-02-26T08:36:03;99902.31;;;4.92;100.00
78845;BME280;68195;50.854;2.860;2024-02-26T08:38:29;99846.13;;;4.52;100.00
78845;BME280;68195;50.854;2.860;2024-02-26T08:40:54;99921.44;;;4.88;100.00
78845;BME280;68195;50.854;2.860;2024-02-26T08:43:22;99850.34;;;4.32;100.00
78845;BME280;68195;50.854;2.860;2024-02-26T08:45:47;99856.91;;;4.41;100.00
78845;BME280;68195;50.854;2.860;2024-02-26T08:48:15;99881.84;;;4.42;100.00
78845;BME280;68195;50.854;2.860;2024-02-26T08:50:46;99804.28;;;3.98;100.00
78845;BME280;68195;50.854;2.860;2024-02-26T08:53:14;99869.22;;;4.35;100.00
78845;BME280;68195;50.854;2.860;2024-02-26T08:55:39;99887.00;;;4.42;100.00
78845;BME280;68195;50.854;2.860;2024-02-26T08:58:07;99892.41;;;4.36;100.00
78845;BME280;68195;50.854;2.860;2024-02-26T09:00:32;99881.72;;;4.23;100.00
78845;BME280;68195;50.854;2.860;2024-02-26T09:02:57;99857.28;;;4.08;100.00
78845;BME280;68195;50.854;2.860;2024-02-26T09:05:23;99925.06;;;4.39;100.00
78845;BME280;68195;50.854;2.860;2024-02-26T09:07:48;99934.31;;;4.44;100.00
78845;BME280;68195;50.854;2.860;2024-02-26T09:10:14;99861.44;;;3.89;100.00
78845;BME280;68195;50.854;2.860;2024-02-26T09:12:39;99770.28;;;3.40;100.00
78845;BME280;68195;50.854;2.860;2024-02-26T09:15:06;99976.25;;;4.52;100.00
78845;BME280;68195;50.854;2.860;2024-02-26T09:17:31;99943.56;;;4.28;100.00
78845;BME280;68195;50.854;2.860;2024-02-26T09:19:59;99883.16;;;3.83;100.00
78845;BME280;68195;50.854;2.860;2024-02-26T09:22:25;99872.44;;;3.70;100.00
78845;BME280;68195;50.854;2.860;2024-02-26T09:24:55;99911.41;;;3.88;100.00
78845;BME280;68195;50.854;2.860;2024-02-26T09:27:20;99959.94;;;4.27;100.00
78845;BME280;68195;50.854;2.860;2024-02-26T09:29:51;99947.56;;;4.13;100.00
78845;BME280;68195;50.854;2.860;2024-02-26T09:32:17;100014.47;;;4.44;100.00
78845;BME280;68195;50.854;2.860;2024-02-26T09:34:45;100009.50;;;4.38;100.00
78845;BME280;68195;50.854;2.860;2024-02-26T09:37:13;99946.31;;;4.00;100.00
78845;BME280;68195;50.854;2.860;2024-02-26T09:39:38;99972.69;;;4.08;100.00
78845;BME280;68195;50.854;2.860;2024-02-26T09:42:06;99961.06;;;3.96;100.00
78845;BME280;68195;50.854;2.860;2024-02-26T09:44:36;100031.91;;;4.39;100.00
78845;BME280;68195;50.854;2.860;2024-02-26T09:47:08;99959.66;;;3.87;100.00
78845;BME280;68195;50.854;2.860;2024-02-26T09:49:35;99957.56;;;3.97;100.00
78845;BME280;68195;50.854;2.860;2024-02-26T09:52:01;100021.38;;;4.20;100.00
78845;BME280;68195;50.854;2.860;2024-02-26T09:54:32;99974.84;;;3.95;100.00
78845;BME280;68195;50.854;2.860;2024-02-26T09:57:00;99996.91;;;4.05;100.00
78845;BME280;68195;50.854;2.860;2024-02-26T09:59:28;99982.59;;;3.95;100.00
78845;BME280;68195;50.854;2.860;2024-02-26T10:01:56;99970.44;;;3.74;100.00
78845;BME280;68195;50.854;2.860;2024-02-26T10:04:23;99964.28;;;3.78;100.00
78845;BME280;68195;50.854;2.860;2024-02-26T10:06:49;100093.72;;;4.45;100.00
78845;BME280;68195;50.854;2.860;2024-02-26T10:09:16;99962.91;;;3.67;100.00
78845;BME280;68195;50.854;2.860;2024-02-26T10:11:44;100057.66;;;4.17;100.00
78845;BME280;68195;50.854;2.860;2024-02-26T10:14:10;100030.16;;;4.15;100.00
78845;BME280;68195;50.854;2.860;2024-02-26T10:16:38;100073.47;;;4.33;100.00
78845;BME280;68195;50.854;2.860;2024-02-26T10:19:04;100084.75;;;4.30;100.00
78845;BME280;68195;50.854;2.860;2024-02-26T10:21:29;100114.25;;;4.50;100.00
78845;BME280;68195;50.854;2.860;2024-02-26T10:23:57;100018.09;;;3.90;100.00
78845;BME280;68195;50.854;2.860;2024-02-26T10:26:22;99977.91;;;3.56;100.00
78845;BME280;68195;50.854;2.860;2024-02-26T10:28:50;99998.91;;;3.72;100.00
78845;BME280;68195;50.854;2.860;2024-02-26T10:31:18;100096.16;;;4.25;100.00
78845;BME280;68195;50.854;2.860;2024-02-26T10:33:46;100091.88;;;4.24;100.00
78845;BME280;68195;50.854;2.860;2024-02-26T10:36:14;100077.75;;;4.09;100.00
78845;BME280;68195;50.854;2.860;2024-02-26T10:38:41;100037.19;;;3.86;100.00
78845;BME280;68195;50.854;2.860;2024-02-26T10:41:13;100115.34;;;4.18;100.00
78845;BME280;68195;50.854;2.860;2024-02-26T10:43:42;100046.72;;;3.84;100.00
78845;BME280;68195;50.854;2.860;2024-02-26T10:46:08;100165.97;;;4.50;100.00
78845;BME280;68195;50.854;2.860;2024-02-26T10:48:37;100014.16;;;3.53;100.00
78845;BME280;68195;50.854;2.860;2024-02-26T10:51:09;100129.59;;;4.29;100.00
78845;BME280;68195;50.854;2.860;2024-02-26T10:53:39;100067.38;;;3.84;100.00
78845;BME280;68195;50.854;2.860;2024-02-26T10:56:06;100130.75;;;4.21;100.00
78845;BME280;68195;50.854;2.860;2024-02-26T10:58:32;100193.44;;;4.52;100.00
78845;BME280;68195;50.854;2.860;2024-02-26T11:01:01;100189.91;;;4.55;100.00
78845;BME280;68195;50.854;2.860;2024-02-26T11:03:28;100164.78;;;4.34;100.00
78845;BME280;68195;50.854;2.860;2024-02-26T11:05:57;100190.91;;;4.51;100.00
78845;BME280;68195;50.854;2.860;2024-02-26T11:08:26;100152.38;;;4.18;100.00
78845;BME280;68195;50.854;2.860;2024-02-26T11:10:56;100124.50;;;4.01;100.00
78845;BME280;68195;50.854;2.860;2024-02-26T11:13:23;100208.84;;;4.56;100.00
78845;BME280;68195;50.854;2.860;2024-02-26T11:15:52;100184.63;;;4.33;100.00
78845;BME280;68195;50.854;2.860;2024-02-26T11:18:20;100047.03;;;3.48;100.00
78845;BME280;68195;50.854;2.860;2024-02-26T11:20:53;100111.59;;;3.75;100.00
78845;BME280;68195;50.854;2.860;2024-02-26T11:23:21;100229.63;;;4.54;100.00
78845;BME280;68195;50.854;2.860;2024-02-26T11:25:48;100182.44;;;4.21;100.00
78845;BME280;68195;50.854;2.860;2024-02-26T11:28:17;100201.16;;;4.27;100.00
78845;BME280;68195;50.854;2.860;2024-02-26T11:30:47;100202.19;;;4.23;100.00
78845;BME280;68195;50.854;2.860;2024-02-26T11:33:16;100169.31;;;4.00;100.00
78845;BME280;68195;50.854;2.860;2024-02-26T11:35:42;100171.56;;;4.11;100.00
78845;BME280;68195;50.854;2.860;2024-02-26T11:38:17;100240.69;;;4.58;100.00
78845;BME280;68195;50.854;2.860;2024-02-26T11:40:48;100229.84;;;4.46;100.00
78845;BME280;68195;50.854;2.860;2024-02-26T11:43:13;100226.44;;;4.46;100.00
78845;BME280;68195;50.854;2.860;2024-02-26T11:48:14;100227.41;;;4.42;100.00
78845;BME280;68195;50.854;2.860;2024-02-26T11:50:45;100256.06;;;4.62;100.00
78845;BME280;68195;50.854;2.860;2024-02-26T11:55:47;100179.34;;;4.09;100.00
78845;BME280;68195;50.854;2.860;2024-02-26T11:58:14;100189.50;;;4.16;100.00
78845;BME280;68195;50.854;2.860;2024-02-26T12:00:45;100150.63;;;3.92;100.00
78845;BME280;68195;50.854;2.860;2024-02-26T12:03:15;100077.75;;;3.56;100.00
78845;BME280;68195;50.854;2.860;2024-02-26T12:05:43;100208.78;;;4.32;100.00
78845;BME280;68195;50.854;2.860;2024-02-26T12:08:13;100236.88;;;4.43;100.00
78845;BME280;68195;50.854;2.860;2024-02-26T12:10:42;100274.00;;;4.67;100.00
78845;BME280;68195;50.854;2.860;2024-02-26T12:13:14;100285.72;;;4.77;100.00
78845;BME280;68195;50.854;2.860;2024-02-26T12:15:44;100290.03;;;4.78;100.00
78845;BME280;68195;50.854;2.860;2024-02-26T12:18:17;100264.72;;;4.61;100.00
78845;BME280;68195;50.854;2.860;2024-02-26T12:20:43;100291.59;;;4.82;100.00
78845;BME280;68195;50.854;2.860;2024-02-26T12:23:16;100255.50;;;4.52;100.00
78845;BME280;68195;50.854;2.860;2024-02-26T12:25:43;100274.09;;;4.64;100.00
78845;BME280;68195;50.854;2.860;2024-02-26T12:28:09;100268.25;;;4.59;100.00
78845;BME280;68195;50.854;2.860;2024-02-26T12:30:35;100256.41;;;4.51;100.00
78845;BME280;68195;50.854;2.860;2024-02-26T12:33:00;100217.59;;;4.26;100.00
78845;BME280;68195;50.854;2.860;2024-02-26T12:35:27;100282.56;;;4.69;100.00
78845;BME280;68195;50.854;2.860;2024-02-26T12:37:53;100312.53;;;4.75;100.00
78845;BME280;68195;50.854;2.860;2024-02-26T12:40:20;100294.91;;;4.61;100.00
78845;BME280;68195;50.854;2.860;2024-02-26T12:42:51;100165.84;;;3.73;100.00
78845;BME280;68195;50.854;2.860;2024-02-26T12:45:21;100316.13;;;4.70;100.00
78845;BME280;68195;50.854;2.860;2024-02-26T12:47:48;100220.06;;;4.03;100.00
78845;BME280;68195;50.854;2.860;2024-02-26T12:50:15;100306.94;;;4.62;100.00
78845;BME280;68195;50.854;2.860;2024-02-26T12:52:46;100351.13;;;4.82;100.00
78845;BME280;68195;50.854;2.860;2024-02-26T12:55:17;100363.84;;;4.88;100.00
78845;BME280;68195;50.854;2.860;2024-02-26T12:57:43;100376.78;;;4.88;100.00
78845;BME280;68195;50.854;2.860;2024-02-26T13:00:15;100364.00;;;4.84;100.00